createdAt,value
2023-01-30T00:01:15.449Z,99229.09
2023-01-30T00:03:42.061Z,99229.78
2023-01-30T00:06:08.752Z,99235.00
2023-01-30T00:08:35.353Z,99224.19
2023-01-30T00:11:07.259Z,99228.38
2023-01-30T00:13:34.250Z,99236.63
2023-01-30T00:16:01.618Z,99226.41
2023-01-30T00:18:28.556Z,99232.66
2023-01-30T00:20:56.971Z,99233.31
2023-01-30T00:23:23.680Z,99232.06
2023-01-30T00:25:50.566Z,99227.97
2023-01-30T00:28:17.281Z,99234.44
2023-01-30T00:30:43.987Z,99227.00
2023-01-30T00:33:11.286Z,99226.50
2023-01-30T00:35:37.911Z,99231.69
2023-01-30T00:38:04.527Z,99226.69
2023-01-30T00:40:31.136Z,99204.22
2023-01-30T00:43:16.482Z,99178.56
2023-01-30T00:46:03.580Z,99173.00
2023-01-30T00:48:30.918Z,99177.78
2023-01-30T00:50:57.800Z,99190.41
2023-01-30T00:53:24.840Z,99188.63
2023-01-30T00:55:52.399Z,99155.50
2023-01-30T00:58:19.447Z,99157.69
2023-01-30T01:00:46.383Z,99161.34
2023-01-30T01:03:13.239Z,99165.44
2023-01-30T01:05:40.901Z,99177.28
2023-01-30T01:08:07.713Z,99151.91
2023-01-30T01:10:34.668Z,99142.59
2023-01-30T01:13:02.639Z,99147.34
2023-01-30T01:15:30.073Z,99141.59
2023-01-30T01:17:56.699Z,99147.50
2023-01-30T01:20:23.398Z,99160.38
2023-01-30T01:22:54.156Z,99157.97
2023-01-30T01:25:22.043Z,99149.38
2023-01-30T01:27:49.760Z,99158.78
2023-01-30T01:30:17.564Z,99143.28
2023-01-30T01:32:44.742Z,99144.13
2023-01-30T01:35:11.715Z,99168.03
2023-01-30T01:37:38.392Z,99151.38
2023-01-30T01:40:25.081Z,99140.94
2023-01-30T01:42:51.851Z,99137.09
2023-01-30T01:45:25.062Z,99131.16
2023-01-30T01:48:00.743Z,99116.72
2023-01-30T01:50:42.276Z,99106.84
2023-01-30T01:53:12.060Z,99085.72
2023-01-30T01:55:41.623Z,99076.50
2023-01-30T01:58:17.560Z,99083.44
2023-01-30T02:00:44.545Z,99089.38
2023-01-30T02:03:19.789Z,99084.72
2023-01-30T02:05:50.766Z,99086.06
2023-01-30T02:08:27.019Z,99090.41
2023-01-30T02:10:53.554Z,99098.19
2023-01-30T02:13:20.764Z,99102.81
2023-01-30T02:15:47.653Z,99097.09
2023-01-30T02:18:15.669Z,99099.72
2023-01-30T02:21:12.649Z,99093.31
2023-01-30T02:23:54.623Z,99077.16
2023-01-30T02:26:33.725Z,99062.22
2023-01-30T02:29:41.969Z,99067.50
2023-01-30T02:32:25.352Z,99075.25
2023-01-30T02:35:01.604Z,99069.03
2023-01-30T02:38:05.040Z,99074.00
2023-01-30T02:40:53.329Z,99077.72
2023-01-30T02:43:55.521Z,99091.16
2023-01-30T02:46:32.293Z,99081.28
2023-01-30T02:49:17.453Z,99074.22
2023-01-30T02:51:46.178Z,99068.00
2023-01-30T02:54:14.925Z,99062.78
2023-01-30T02:56:54.115Z,99054.44
2023-01-30T02:59:34.028Z,99053.53
2023-01-30T03:02:05.315Z,99056.28
2023-01-30T03:04:50.884Z,99062.03
2023-01-30T03:07:32.919Z,99064.44
2023-01-30T03:10:07.089Z,99070.41
2023-01-30T03:13:02.788Z,99062.84
2023-01-30T03:15:35.635Z,99054.09
2023-01-30T03:18:03.774Z,99049.09
2023-01-30T03:20:31.678Z,99060.41
2023-01-30T03:22:58.341Z,99055.81
2023-01-30T03:25:28.151Z,99053.69
2023-01-30T03:27:55.807Z,99047.38
2023-01-30T03:30:25.920Z,99046.16
2023-01-30T03:33:00.019Z,99054.78
2023-01-30T03:35:26.926Z,99054.72
2023-01-30T03:37:54.656Z,99056.63
2023-01-30T03:40:21.474Z,99054.16
2023-01-30T03:42:49.387Z,99063.06
2023-01-30T03:45:16.717Z,99062.47
2023-01-30T03:47:46.135Z,99046.47
2023-01-30T03:50:12.855Z,99040.38
2023-01-30T03:52:39.613Z,99029.25
2023-01-30T03:55:11.275Z,99036.81
2023-01-30T03:57:38.159Z,99028.47
2023-01-30T04:00:05.250Z,99033.56
2023-01-30T04:02:42.844Z,99036.91
2023-01-30T04:05:11.654Z,99036.22
2023-01-30T04:07:42.329Z,99046.88
2023-01-30T04:10:10.764Z,99039.47
2023-01-30T04:12:37.428Z,99032.63
2023-01-30T04:15:04.469Z,99039.28
2023-01-30T04:17:50.129Z,99028.78
2023-01-30T04:20:16.997Z,99027.19
2023-01-30T04:22:49.020Z,99020.84
2023-01-30T04:25:17.192Z,99024.94
2023-01-30T04:27:44.583Z,99018.91
2023-01-30T04:30:30.213Z,99014.16
2023-01-30T04:33:14.588Z,99003.28
2023-01-30T04:35:41.194Z,98996.94
2023-01-30T04:38:08.199Z,98993.91
2023-01-30T04:40:34.835Z,98987.34
2023-01-30T04:43:01.475Z,98995.25
2023-01-30T04:45:43.737Z,98985.06
2023-01-30T04:48:10.617Z,98993.91
2023-01-30T04:50:38.303Z,98995.38
2023-01-30T04:53:06.190Z,98998.28
2023-01-30T04:55:32.887Z,99009.91
2023-01-30T04:57:59.751Z,99006.34
2023-01-30T05:00:26.960Z,98996.22
2023-01-30T05:02:58.223Z,99011.63
2023-01-30T05:05:26.225Z,99009.97
2023-01-30T05:07:53.148Z,98994.09
2023-01-30T05:10:20.290Z,98989.81
2023-01-30T05:12:47.423Z,98995.63
2023-01-30T05:15:14.330Z,98978.84
2023-01-30T05:17:43.087Z,98978.78
2023-01-30T05:20:13.489Z,98972.72
2023-01-30T05:22:40.352Z,98948.78
2023-01-30T05:25:07.531Z,98945.41
2023-01-30T05:27:34.165Z,98940.19
2023-01-30T05:30:00.830Z,98936.16
2023-01-30T05:32:30.403Z,98926.19
2023-01-30T05:34:57.281Z,98929.66
2023-01-30T05:37:24.554Z,98925.63
2023-01-30T05:39:51.678Z,98935.94
2023-01-30T05:42:18.572Z,98934.09
2023-01-30T05:44:45.942Z,98938.84
2023-01-30T05:47:12.542Z,98944.81
2023-01-30T05:49:39.382Z,98936.22
2023-01-30T05:52:06.121Z,98933.75
2023-01-30T05:54:34.033Z,98943.47
2023-01-30T05:57:00.686Z,98954.22
2023-01-30T05:59:27.283Z,98953.59
2023-01-30T06:01:53.883Z,98947.31
2023-01-30T06:04:20.580Z,98947.63
2023-01-30T06:06:49.650Z,98951.75
2023-01-30T06:09:16.458Z,98940.19
2023-01-30T06:11:43.046Z,98928.34
2023-01-30T06:14:09.738Z,98923.56
2023-01-30T06:16:36.725Z,98904.00
2023-01-30T06:19:03.482Z,98901.44
2023-01-30T06:21:31.025Z,98903.31
2023-01-30T06:23:57.725Z,98882.25
2023-01-30T06:26:24.426Z,98886.47
2023-01-30T06:28:51.089Z,98884.56
2023-01-30T06:31:18.451Z,98899.19
2023-01-30T06:33:46.270Z,98908.44
2023-01-30T06:36:12.893Z,98917.09
2023-01-30T06:38:39.546Z,98926.16
2023-01-30T06:41:06.502Z,98926.00
2023-01-30T06:43:33.166Z,98936.00
2023-01-30T06:46:00.430Z,98939.88
2023-01-30T06:48:27.179Z,98935.72
2023-01-30T06:50:53.896Z,98948.59
2023-01-30T06:53:20.870Z,98955.16
2023-01-30T06:55:47.472Z,98960.66
2023-01-30T06:58:14.863Z,98970.28
2023-01-30T07:00:42.826Z,98962.31
2023-01-30T07:03:14.568Z,98969.25
2023-01-30T07:05:42.492Z,98948.38
2023-01-30T07:08:09.852Z,98954.06
2023-01-30T07:10:37.244Z,98941.25
2023-01-30T07:13:04.918Z,98944.41
2023-01-30T07:15:32.293Z,98950.06
2023-01-30T07:17:59.573Z,98946.50
2023-01-30T07:20:26.368Z,98949.31
2023-01-30T07:22:55.000Z,98949.53
2023-01-30T07:25:24.320Z,98953.66
2023-01-30T07:27:58.772Z,98950.06
2023-01-30T07:30:27.282Z,98939.63
2023-01-30T07:32:57.606Z,98927.00
2023-01-30T07:35:26.277Z,98931.53
2023-01-30T07:37:52.987Z,98941.28
2023-01-30T07:40:20.885Z,98951.84
2023-01-30T07:43:02.581Z,98949.19
2023-01-30T07:45:51.400Z,98953.53
2023-01-30T07:48:19.712Z,98957.00
2023-01-30T07:50:47.047Z,98956.06
2023-01-30T07:53:16.009Z,98966.84
2023-01-30T07:55:42.917Z,98953.44
2023-01-30T07:58:13.796Z,98958.81
2023-01-30T08:00:40.489Z,98962.22
2023-01-30T08:03:12.146Z,98980.53
2023-01-30T08:05:38.807Z,98968.50
2023-01-30T08:08:05.470Z,98979.09
2023-01-30T08:10:32.138Z,98970.25
2023-01-30T08:12:58.809Z,98971.34
2023-01-30T08:15:25.492Z,98972.22
2023-01-30T08:17:56.675Z,98958.53
2023-01-30T08:20:24.853Z,98952.03
2023-01-30T08:22:51.623Z,98948.69
2023-01-30T08:25:18.443Z,98947.13
2023-01-30T08:27:45.090Z,98966.38
2023-01-30T08:30:13.052Z,98969.84
2023-01-30T08:32:39.724Z,98957.69
2023-01-30T08:35:06.942Z,98964.34
2023-01-30T08:37:33.786Z,98956.75
2023-01-30T08:40:00.396Z,98948.78
2023-01-30T08:42:27.047Z,98956.63
2023-01-30T08:44:53.748Z,98957.88
2023-01-30T08:47:20.404Z,98966.50
2023-01-30T08:49:47.152Z,98967.53
2023-01-30T08:52:13.838Z,98965.38
2023-01-30T08:54:40.465Z,98976.16
2023-01-30T08:57:07.116Z,98966.06
2023-01-30T08:59:33.884Z,98963.34
2023-01-30T09:02:00.595Z,98973.50
2023-01-30T09:04:29.765Z,98977.41
2023-01-30T09:06:56.543Z,98971.69
2023-01-30T09:09:23.224Z,98966.41
2023-01-30T09:11:49.933Z,98963.31
2023-01-30T09:14:19.912Z,98964.94
2023-01-30T09:16:55.771Z,98974.44
2023-01-30T09:19:23.821Z,98973.34
2023-01-30T09:21:51.777Z,98966.31
2023-01-30T09:24:18.761Z,98955.47
2023-01-30T09:26:46.089Z,98944.28
2023-01-30T09:29:12.866Z,98937.91
2023-01-30T09:31:39.851Z,98932.81
2023-01-30T09:34:07.166Z,98931.94
2023-01-30T09:36:34.015Z,98934.69
2023-01-30T09:39:00.769Z,98931.97
2023-01-30T09:41:42.398Z,98943.44
2023-01-30T09:44:37.093Z,98940.91
2023-01-30T09:47:12.325Z,98942.13
2023-01-30T09:49:59.363Z,98937.63
2023-01-30T09:52:35.197Z,98938.06
2023-01-30T09:55:23.668Z,98940.59
2023-01-30T09:57:52.240Z,98935.34
2023-01-30T10:00:34.341Z,98921.50
2023-01-30T10:03:00.898Z,98937.72
2023-01-30T10:05:45.299Z,98938.00
2023-01-30T10:08:43.287Z,98933.66
2023-01-30T10:11:12.675Z,98940.25
2023-01-30T10:14:09.568Z,98947.81
2023-01-30T10:16:47.613Z,98958.56
2023-01-30T10:19:34.796Z,98950.81
2023-01-30T10:22:16.067Z,98933.47
2023-01-30T10:24:54.923Z,98936.75
2023-01-30T10:27:22.625Z,98943.28
2023-01-30T10:29:57.040Z,98944.09
2023-01-30T10:32:33.888Z,98942.28
2023-01-30T10:35:06.360Z,98945.47
2023-01-30T10:37:40.517Z,98919.97
2023-01-30T10:40:32.234Z,98910.22
2023-01-30T10:43:23.834Z,98915.56
2023-01-30T10:46:15.679Z,98921.72
2023-01-30T10:49:15.192Z,98918.19
2023-01-30T10:52:08.135Z,98925.56
2023-01-30T10:54:48.415Z,98935.16
2023-01-30T10:58:19.913Z,98927.50
2023-01-30T11:00:55.541Z,98918.53
2023-01-30T11:03:47.077Z,98916.88
2023-01-30T11:06:24.907Z,98915.13
2023-01-30T11:08:53.028Z,98916.31
2023-01-30T11:11:29.936Z,98913.13
2023-01-30T11:14:08.032Z,98914.34
2023-01-30T11:16:48.781Z,98921.19
2023-01-30T11:19:20.790Z,98927.22
2023-01-30T11:21:51.671Z,98920.44
2023-01-30T11:24:24.883Z,98908.22
2023-01-30T11:26:53.009Z,98907.97
2023-01-30T11:29:29.758Z,98911.56
2023-01-30T11:32:00.767Z,98913.25
2023-01-30T11:34:27.485Z,98915.88
2023-01-30T11:37:11.985Z,98909.19
2023-01-30T11:39:50.267Z,98907.22
2023-01-30T11:42:20.127Z,98896.25
2023-01-30T11:44:46.768Z,98904.00
2023-01-30T11:47:22.764Z,98905.59
2023-01-30T11:49:59.897Z,98890.06
2023-01-30T11:52:31.615Z,98897.03
2023-01-30T11:55:08.390Z,98890.78
2023-01-30T11:57:48.426Z,98897.03
2023-01-30T12:00:24.517Z,98892.22
2023-01-30T12:02:54.552Z,98895.63
2023-01-30T12:05:34.538Z,98897.44
2023-01-30T12:08:17.495Z,98892.16
2023-01-30T12:10:55.064Z,98891.22
2023-01-30T12:13:43.626Z,98891.56
2023-01-30T12:16:21.261Z,98900.19
2023-01-30T12:19:04.625Z,98886.25
2023-01-30T12:21:52.521Z,98886.91
2023-01-30T12:24:28.691Z,98879.34
2023-01-30T12:27:01.133Z,98874.22
2023-01-30T12:29:35.917Z,98874.94
2023-01-30T12:32:09.577Z,98870.84
2023-01-30T12:34:36.241Z,98867.25
2023-01-30T12:37:25.705Z,98869.84
2023-01-30T12:39:53.806Z,98866.63
2023-01-30T12:42:48.277Z,98860.41
2023-01-30T12:45:26.397Z,98871.84
2023-01-30T12:48:27.078Z,98863.09
2023-01-30T12:51:14.688Z,98865.88
2023-01-30T12:54:02.003Z,98863.28
2023-01-30T12:57:03.789Z,98876.34
2023-01-30T12:59:50.459Z,98885.19
2023-01-30T13:02:40.409Z,98875.50
2023-01-30T13:05:25.941Z,98877.31
2023-01-30T13:08:13.879Z,98883.50
2023-01-30T13:11:12.013Z,98884.19
2023-01-30T13:13:47.243Z,98877.31
2023-01-30T13:16:49.354Z,98879.00
2023-01-30T13:19:40.421Z,98884.41
2023-01-30T13:22:13.106Z,98875.78
2023-01-30T13:25:01.155Z,98869.75
2023-01-30T13:27:30.854Z,98864.34
2023-01-30T13:30:00.547Z,98864.47
2023-01-30T13:32:35.489Z,98860.16
2023-01-30T13:35:06.529Z,98861.06
2023-01-30T13:37:34.305Z,98865.53
2023-01-30T13:40:16.262Z,98872.50
2023-01-30T13:42:52.509Z,98866.16
2023-01-30T13:45:26.025Z,98870.63
2023-01-30T13:48:14.236Z,98875.03
2023-01-30T13:50:55.050Z,98880.28
2023-01-30T13:53:39.687Z,98883.75
2023-01-30T13:56:40.776Z,98882.91
2023-01-30T13:59:27.776Z,98881.16
2023-01-30T14:02:03.536Z,98880.38
2023-01-30T14:04:30.203Z,98889.16
2023-01-30T14:07:09.965Z,98889.22
2023-01-30T14:09:37.304Z,98894.47
2023-01-30T14:12:06.486Z,98884.84
2023-01-30T14:14:40.557Z,98891.00
2023-01-30T14:17:12.471Z,98893.66
2023-01-30T14:19:42.152Z,98897.19
2023-01-30T14:22:34.384Z,98905.03
2023-01-30T14:25:22.790Z,98897.97
2023-01-30T14:27:53.588Z,98915.50
2023-01-30T14:30:44.759Z,98911.16
2023-01-30T14:33:20.685Z,98919.09
2023-01-30T14:35:48.193Z,98921.81
2023-01-30T14:38:19.223Z,98919.97
2023-01-30T14:41:24.128Z,98927.84
2023-01-30T14:43:53.527Z,98934.88
2023-01-30T14:46:20.470Z,98928.69
2023-01-30T14:49:05.214Z,98937.44
2023-01-30T14:51:42.493Z,98939.19
2023-01-30T14:54:12.585Z,98940.03
2023-01-30T14:56:59.192Z,98943.66
2023-01-30T14:59:52.121Z,98947.94
2023-01-30T15:02:44.211Z,98946.22
2023-01-30T15:05:17.656Z,98954.94
2023-01-30T15:07:49.251Z,98962.81
2023-01-30T15:10:53.572Z,98974.22
2023-01-30T15:13:32.581Z,98970.84
2023-01-30T15:16:23.990Z,98976.88
2023-01-30T15:19:16.657Z,98992.66
2023-01-30T15:21:58.208Z,98997.88
2023-01-30T15:24:55.724Z,99005.75
2023-01-30T15:27:27.673Z,99018.06
2023-01-30T15:29:54.218Z,99015.44
2023-01-30T15:32:26.555Z,99007.53
2023-01-30T15:34:59.468Z,99011.94
2023-01-30T15:37:34.573Z,99013.63
2023-01-30T15:40:31.249Z,99022.44
2023-01-30T15:43:00.655Z,99028.63
2023-01-30T15:45:33.276Z,99034.69
2023-01-30T15:48:25.561Z,99039.91
2023-01-30T15:50:55.223Z,99043.47
2023-01-30T15:53:35.949Z,99040.78
2023-01-30T15:56:06.975Z,99054.69
2023-01-30T15:58:39.297Z,99056.38
2023-01-30T16:01:06.707Z,99059.84
2023-01-30T16:03:40.563Z,99056.34
2023-01-30T16:06:07.799Z,99058.09
2023-01-30T16:08:36.394Z,99058.19
2023-01-30T16:11:03.589Z,99070.41
2023-01-30T16:13:33.098Z,99072.16
2023-01-30T16:16:12.753Z,99070.34
2023-01-30T16:18:47.647Z,99074.63
2023-01-30T16:21:21.191Z,99085.97
2023-01-30T16:23:59.014Z,99086.00
2023-01-30T16:26:26.040Z,99087.75
2023-01-30T16:29:01.761Z,99092.91
2023-01-30T16:31:38.798Z,99106.75
2023-01-30T16:34:05.710Z,99110.97
2023-01-30T16:36:39.335Z,99110.97
2023-01-30T16:39:37.715Z,99117.03
2023-01-30T16:42:30.524Z,99109.13
2023-01-30T16:45:12.094Z,99118.91
2023-01-30T16:47:39.746Z,99135.50
2023-01-30T16:50:19.937Z,99124.31
2023-01-30T16:52:51.687Z,99123.38
2023-01-30T16:55:22.060Z,99117.31
2023-01-30T16:57:59.897Z,99129.56
2023-01-30T17:00:35.246Z,99128.75
2023-01-30T17:03:05.006Z,99133.94
2023-01-30T17:05:39.528Z,99140.16
2023-01-30T17:08:26.582Z,99144.44
2023-01-30T17:10:54.925Z,99152.31
2023-01-30T17:13:30.947Z,99154.09
2023-01-30T17:16:16.403Z,99161.16
2023-01-30T17:18:46.475Z,99162.72
2023-01-30T17:21:14.204Z,99162.88
2023-01-30T17:23:47.816Z,99164.56
2023-01-30T17:26:15.529Z,99170.63
2023-01-30T17:28:42.458Z,99171.38
2023-01-30T17:31:13.220Z,99168.00
2023-01-30T17:33:39.959Z,99175.19
2023-01-30T17:36:15.401Z,99184.53
2023-01-30T17:38:42.060Z,99182.13
2023-01-30T17:41:18.253Z,99183.09
2023-01-30T17:43:44.935Z,99174.34
2023-01-30T17:46:12.991Z,99188.38
2023-01-30T17:48:40.161Z,99195.25
2023-01-30T17:51:06.837Z,99187.38
2023-01-30T17:53:33.466Z,99189.16
2023-01-30T17:56:00.420Z,99195.34
2023-01-30T17:58:27.268Z,99205.66
2023-01-30T18:00:54.019Z,99206.56
2023-01-30T18:03:20.674Z,99206.53
2023-01-30T18:05:47.397Z,99214.22
2023-01-30T18:08:14.168Z,99209.81
2023-01-30T18:10:40.864Z,99214.22
2023-01-30T18:13:07.549Z,99217.59
2023-01-30T18:15:34.247Z,99218.41
2023-01-30T18:18:00.998Z,99216.69
2023-01-30T18:20:27.810Z,99223.63
2023-01-30T18:22:54.623Z,99227.16
2023-01-30T18:25:21.832Z,99230.78
2023-01-30T18:27:48.991Z,99236.81
2023-01-30T18:30:17.718Z,99241.19
2023-01-30T18:32:52.826Z,99238.47
2023-01-30T18:35:21.483Z,99242.91
2023-01-30T18:37:48.448Z,99247.25
2023-01-30T18:40:15.391Z,99253.44
2023-01-30T18:42:42.358Z,99244.53
2023-01-30T18:45:09.612Z,99251.66
2023-01-30T18:47:36.326Z,99255.75
2023-01-30T18:50:04.400Z,99259.97
2023-01-30T18:52:31.625Z,99264.25
2023-01-30T18:54:58.273Z,99275.38
2023-01-30T18:57:24.907Z,99278.72
2023-01-30T18:59:51.555Z,99278.06
2023-01-30T19:02:18.248Z,99273.25
2023-01-30T19:04:45.009Z,99279.38
2023-01-30T19:07:11.627Z,99274.38
2023-01-30T19:09:38.263Z,99282.34
2023-01-30T19:12:24.112Z,99281.56
2023-01-30T19:14:50.782Z,99292.09
2023-01-30T19:17:17.398Z,99296.34
2023-01-30T19:19:44.680Z,99287.59
2023-01-30T19:22:11.415Z,99291.78
2023-01-30T19:24:38.140Z,99294.94
2023-01-30T19:27:09.823Z,99300.28
2023-01-30T19:29:36.503Z,99294.25
2023-01-30T19:32:03.504Z,99300.28
2023-01-30T19:34:30.320Z,99295.84
2023-01-30T19:36:56.974Z,99298.31
2023-01-30T19:39:23.970Z,99300.16
2023-01-30T19:41:50.643Z,99307.03
2023-01-30T19:44:17.345Z,99311.31
2023-01-30T19:46:44.244Z,99313.09
2023-01-30T19:49:11.533Z,99313.28
2023-01-30T19:51:38.210Z,99299.41
2023-01-30T19:54:08.047Z,99304.91
2023-01-30T19:56:36.551Z,99310.75
2023-01-30T19:59:03.811Z,99309.03
2023-01-30T20:01:32.956Z,99306.97
2023-01-30T20:04:01.599Z,99308.78
2023-01-30T20:06:31.590Z,99320.81
2023-01-30T20:09:01.289Z,99315.56
2023-01-30T20:11:29.401Z,99321.88
2023-01-30T20:13:56.184Z,99324.69
2023-01-30T20:16:25.476Z,99327.28
2023-01-30T20:19:00.816Z,99326.97
2023-01-30T20:21:29.019Z,99332.91
2023-01-30T20:23:56.449Z,99335.47
2023-01-30T20:26:26.418Z,99336.63
2023-01-30T20:28:57.092Z,99335.72
2023-01-30T20:31:26.792Z,99353.03
2023-01-30T20:33:56.666Z,99352.91
2023-01-30T20:36:25.463Z,99350.66
2023-01-30T20:38:53.266Z,99354.81
2023-01-30T20:41:22.407Z,99357.63
2023-01-30T20:43:51.483Z,99356.91
2023-01-30T20:46:19.510Z,99357.81
2023-01-30T20:48:46.842Z,99361.97
2023-01-30T20:51:16.516Z,99364.56
2023-01-30T20:53:54.946Z,99367.34
2023-01-30T20:56:23.527Z,99368.09
2023-01-30T20:58:50.598Z,99376.09
2023-01-30T21:01:20.417Z,99380.59
2023-01-30T21:03:50.316Z,99382.25
2023-01-30T21:06:41.491Z,99381.47
2023-01-30T21:09:07.998Z,99384.97
2023-01-30T21:11:34.767Z,99390.19
2023-01-30T21:14:02.050Z,99397.19
2023-01-30T21:16:31.574Z,99403.25
2023-01-30T21:19:03.204Z,99405.69
2023-01-30T21:21:35.944Z,99404.09
2023-01-30T21:24:06.195Z,99414.56
2023-01-30T21:26:35.590Z,99414.53
2023-01-30T21:29:04.698Z,99429.34
2023-01-30T21:31:33.989Z,99427.53
2023-01-30T21:34:01.382Z,99427.53
2023-01-30T21:36:28.394Z,99438.09
2023-01-30T21:39:13.893Z,99438.09
2023-01-30T21:41:51.954Z,99439.09
2023-01-30T21:44:20.044Z,99452.16
2023-01-30T21:46:48.163Z,99452.22
2023-01-30T21:49:16.477Z,99451.56
2023-01-30T21:51:45.413Z,99457.75
2023-01-30T21:54:12.735Z,99458.34
2023-01-30T21:56:40.123Z,99455.38
2023-01-30T21:59:07.093Z,99456.56
2023-01-30T22:01:35.460Z,99456.63
2023-01-30T22:04:03.676Z,99456.78
2023-01-30T22:06:30.625Z,99464.16
2023-01-30T22:08:59.378Z,99460.78
2023-01-30T22:11:27.287Z,99467.03
2023-01-30T22:13:54.748Z,99471.34
2023-01-30T22:16:24.296Z,99466.19
2023-01-30T22:18:56.063Z,99473.94
2023-01-30T22:21:25.404Z,99471.16
2023-01-30T22:23:53.857Z,99461.69
2023-01-30T22:26:22.891Z,99468.31
2023-01-30T22:28:57.029Z,99461.56
2023-01-30T22:31:25.182Z,99456.28
2023-01-30T22:33:54.131Z,99452.06
2023-01-30T22:36:27.366Z,99471.56
2023-01-30T22:38:54.686Z,99462.41
2023-01-30T22:41:23.924Z,99464.44
2023-01-30T22:43:55.253Z,99461.81
2023-01-30T22:46:33.859Z,99468.66
2023-01-30T22:49:01.884Z,99468.63
2023-01-30T22:51:30.951Z,99471.94
2023-01-30T22:54:00.126Z,99471.19
2023-01-30T22:56:30.153Z,99478.22
2023-01-30T22:58:57.237Z,99482.34
2023-01-30T23:01:29.950Z,99481.47
2023-01-30T23:04:02.280Z,99476.22
2023-01-30T23:06:31.219Z,99476.13
2023-01-30T23:08:59.102Z,99484.56
2023-01-30T23:12:09.940Z,99489.81
2023-01-30T23:14:38.044Z,99482.19
2023-01-30T23:17:25.904Z,99480.19
2023-01-30T23:19:53.478Z,99480.38
2023-01-30T23:22:20.166Z,99487.53
2023-01-30T23:24:48.592Z,99490.84
2023-01-30T23:27:15.313Z,99493.53
2023-01-30T23:29:42.033Z,99483.84
2023-01-30T23:32:08.780Z,99484.78
2023-01-30T23:34:35.722Z,99485.66
2023-01-30T23:37:02.373Z,99497.06
2023-01-30T23:39:29.052Z,99488.09
2023-01-30T23:41:55.810Z,99482.56
2023-01-30T23:44:22.408Z,99484.50
2023-01-30T23:46:49.043Z,99477.56
2023-01-30T23:49:15.800Z,99474.59
2023-01-30T23:51:44.322Z,99477.06
2023-01-30T23:54:12.496Z,99483.94
2023-01-30T23:56:41.853Z,99481.00
2023-01-30T23:59:08.600Z,99478.31
